Latest Coastal Weather Observations for Low Isles

IDQ60701

Issued at 8:51 pm EST Tuesday 17 January 2017 (issued every 10 minutes, with the page automatically refreshed every 10 minutes)

About coastal observations | Map of coastal stations | Coastal observations for QLD | Marine services | Other Formats
Station Details ID: 031037 Name: LOW ISLES LIGHTHOUSE Lat: -16.38 Lon: 145.56 Height: 2.9 m
Data from the previous 72 hours. | See also: Recent months at Low Isles
Date/Time
EST
Temp
°C
Wind Pressure Rain since
9am
mm
Weather Cloud Vis
km
Sea
Height
m
Swell
Dir  Spd
kts
Gust
kts
hPa Trend Height
m
Period
s
Dir
17/08:30pm 27.9 S 13 16 1011.9 - 0.2 - - - - - - -
17/08:16pm 28.1 SSE 19 21 1011.6 - 0.2 - - - - - - -
17/08:00pm 28.4 ESE 9 11 1011.5 - 0.2 - - - - - - -
17/07:30pm 28.8 SE 10 12 1011.1 - 0.2 - - - - - - -
17/07:00pm 28.7 ESE 10 13 1010.7 - 0.2 - - - - - - -
17/06:30pm 29.0 ESE 9 12 1010.5 - 0.2 - - - - - - -
17/06:00pm 29.4 ESE 11 13 1010.2 - 0.2 - - - - - - -
17/05:30pm 29.6 ESE 10 14 1010.1 - 0.2 - - - - - - -
17/05:00pm 29.8 E 10 13 1009.8 - 0.2 - - - - - - -
17/04:30pm 31.2 E 10 14 1009.7 - 0.2 - - - - - - -
17/04:00pm 31.3 ESE 10 14 1009.8 - 0.2 - - - - - - -
17/03:30pm 31.2 E 10 13 1009.8 - 0.2 - - - - - - -
17/03:00pm 30.5 ESE 9 11 1009.8 - 0.2 - - - - - - -
17/02:30pm 30.7 ESE 8 11 1010.1 - 0.2 - - - - - - -
17/02:00pm 30.0 SSE 9 11 1010.4 - 0.2 - - - - - - -
17/01:30pm 29.7 S 6 8 1011.0 - 0.2 - - - - - - -
17/01:00pm 29.2 SSW 10 12 1011.1 - 0.2 - - - - - - -
17/12:30pm 30.0 S 5 7 1011.9 - 0.2 - - - - - - -
17/12:00pm 30.1 SE 4 6 1012.5 - 0.2 - - - - - - -
17/11:30am 29.4 SE 5 7 1013.1 - 0.2 - - - - - - -
17/11:00am 29.0 SSE 7 9 1013.3 - 0.2 - - - - - - -
17/10:30am 28.1 SSE 7 8 1013.4 - 0.2 - - - - - - -
17/10:00am 27.2 S 5 7 1013.2 - 0.2 - - - - - - -
17/09:30am 26.1 S 6 8 1013.3 - 0.2 - - - - - - -
17/09:00am 25.7 SSW 4 6 1013.1 - 43.2 Fine Mostly cloudy 50 - - - -
17/08:30am 25.4 SSW 5 6 1012.9 - 43.2 - - - - - - -
17/08:00am 25.0 SSW 5 6 1012.6 - 43.2 - - - - - - -
17/07:30am 24.9 WSW 7 9 1012.2 - 43.2 - - - - - - -
17/07:00am 24.5 SSW 7 9 1011.8 - 42.6 - - - - - - -
17/06:30am 24.3 S 7 9 1011.5 - 41.8 - - - - - - -
17/06:00am 24.5 S 7 9 1011.4 - 40.4 - - - - - - -
17/05:30am 24.2 CALM 0 0 1011.3 - 39.8 - - - - - - -
17/05:00am 24.1 SSW 4 5 1010.6 - 39.0 - - - - - - -
17/04:30am 24.2 SSW 4 5 1010.1 - 38.0 - - - - - - -
17/04:00am 24.0 SW 5 7 1010.1 - 36.4 - - - - - - -
17/03:30am 24.7 NW 10 13 1010.3 - 27.8 - - - - - - -
17/03:29am 24.7 NW 10 13 1010.3 - 27.4 - - - - - - -
17/03:15am 25.1 N 21 23 1010.1 - 18.0 - - - - - - -
17/03:00am 26.0 NW 19 25 1009.7 - 10.8 - - - - - - -
17/02:56am 26.6 NW 15 24 1009.8 - 7.4 - - - - - - -
17/02:30am 27.7 WSW 10 13 1010.0 - 0.0 - - - - - - -
17/02:00am 27.8 W 11 14 1010.3 - 0.0 - - - - - - -
17/01:30am 28.3 ENE 5 8 1009.9 - 0.0 - - - - - - -
17/01:00am 28.0 NNE 4 6 1010.3 - 0.0 - - - - - - -
17/12:30am 28.0 ENE 6 7 1010.4 - 0.0 - - - - - - -
17/12:00am 28.0 NE 7 9 1010.7 - 0.0 - - - - - - -
 
Date/Time
EST
Temp
°C
Wind Pressure Rain since
9am
mm
Weather Cloud Vis
km
Sea
Height
m
Swell
Dir  Spd
kts
Gust
kts
hPa Trend Height
m
Period
s
Dir
16/11:30pm 28.1 NE 8 9 1010.9 - 0.0 - - - - - - -
16/11:00pm 28.3 NE 8 10 1011.2 - 0.0 - - - - - - -
16/10:30pm 28.3 NE 8 10 1011.2 - 0.0 - - - - - - -
16/10:00pm 28.5 NE 8 11 1011.1 - 0.0 - - - - - - -
16/09:30pm 28.5 ENE 9 11 1010.7 - 0.0 - - - - - - -
16/09:00pm 28.4 ENE 9 11 1010.5 - 0.0 - - - - - - -
16/08:30pm 28.5 ENE 9 11 1010.5 - 0.0 - - - - - - -
16/08:00pm 28.5 ENE 8 10 1010.2 - 0.0 - - - - - - -
16/07:30pm 28.7 ENE 8 11 1009.9 - 0.0 - - - - - - -
16/07:00pm 28.9 ENE 7 9 1009.6 - 0.0 - - - - - - -
16/06:30pm 29.3 NE 7 9 1009.0 - 0.0 - - - - - - -
16/06:00pm 30.1 ENE 8 10 1008.4 - 0.0 - - - - - - -
16/05:30pm 30.5 NE 7 10 1008.0 - 0.0 - - - - - - -
16/05:00pm 31.3 ENE 8 11 1007.3 - 0.0 - - - - - - -
16/04:30pm 32.0 NE 9 11 1007.3 - 0.0 - - - - - - -
16/04:00pm 32.8 NE 10 13 1007.7 - 0.0 - - - - - - -
16/03:30pm 32.7 ENE 11 13 1007.6 - 0.0 - - - - - - -
16/03:00pm 32.4 ENE 8 10 1007.7 - 0.0 - - - - - - -
16/02:30pm 32.8 E 9 11 1007.8 - 0.0 - - - - - - -
16/02:00pm 31.9 ENE 8 11 1008.1 - 0.0 - - - - - - -
16/01:30pm 32.3 ENE 10 12 1008.2 - 0.0 - - - - - - -
16/01:00pm 30.5 NE 7 11 1008.6 - 0.0 - - - - - - -
16/12:30pm 31.7 ENE 5 8 1008.7 - 0.0 - - - - - - -
16/12:00pm 30.1 SE 4 6 1008.8 - 0.0 - - - - - - -
16/11:30am 29.7 SSE 6 7 1008.9 - 0.0 - - - - - - -
16/11:00am 29.3 S 6 8 1009.0 - 0.0 - - - - - - -
16/10:30am 29.1 S 4 5 1009.2 - 0.0 - - - - - - -
16/10:00am 28.3 SSW 4 6 1009.6 - 0.0 - - - - - - -
16/09:30am 27.5 WSW 6 8 1009.6 - 0.0 - - - - - - -
16/09:00am 27.3 W 6 8 1009.3 - 19.8 Fine Partly cloudy 50 - - - -
16/08:30am 27.3 W 6 8 1009.5 - 19.8 - - - - - - -
16/08:00am 26.5 W 5 7 1009.2 - 19.8 - - - - - - -
16/07:30am 26.0 WNW 2 4 1008.8 - 19.8 - - - - - - -
16/07:00am 25.9 SSW 3 5 1008.4 - 19.8 - - - - - - -
16/06:30am 25.6 WSW 9 11 1007.5 - 19.8 - - - - - - -
16/06:00am 25.9 W 10 11 1007.1 - 19.8 - - - - - - -
16/05:30am 25.6 WNW 9 11 1007.3 - 19.8 - - - - - - -
16/05:00am 25.5 WNW 7 9 1007.5 - 19.8 - - - - - - -
16/04:30am 25.3 N 4 5 1007.8 - 19.8 - - - - - - -
16/04:00am 25.6 WNW 10 13 1007.7 - 19.8 - - - - - - -
16/03:30am 24.8 WNW 6 9 1007.4 - 19.8 - - - - - - -
16/03:00am 25.7 WSW 5 7 1007.4 - 19.8 - - - - - - -
16/02:30am 25.5 SW 6 7 1007.9 - 19.8 - - - - - - -
16/02:00am 25.8 SW 8 10 1007.9 - 19.6 - - - - - - -
16/01:30am 25.3 W 9 12 1008.4 - 19.6 - - - - - - -
16/01:00am 24.9 WNW 17 20 1009.0 - 19.6 - - - - - - -
16/12:30am 25.1 WNW 18 21 1009.4 - 19.2 - - - - - - -
16/12:00am 25.3 WNW 14 17 1009.7 - 18.6 - - - - - - -
 
Date/Time
EST
Temp
°C
Wind Pressure Rain since
9am
mm
Weather Cloud Vis
km
Sea
Height
m
Swell
Dir  Spd
kts
Gust
kts
hPa Trend Height
m
Period
s
Dir
15/11:30pm 25.3 WNW 12 14 1009.8 - 17.6 - - - - - - -
15/11:00pm 25.6 WNW 11 13 1010.0 - 16.0 - - - - - - -
15/10:40pm 25.8 WNW 15 19 1009.7 - 12.2 - - - - - - -
15/10:30pm 25.9 ESE 5 7 1009.7 - 11.0 - - - - - - -
15/10:00pm 25.8 ESE 8 9 1009.6 - 9.0 - - - - - - -
15/09:30pm 26.1 SE 10 11 1009.2 - 8.0 - - - - - - -
15/09:00pm 25.7 SSE 7 9 1009.0 - 6.6 - - - - - - -
15/08:30pm 26.0 S 8 10 1008.6 - 5.6 - - - - - - -
15/08:00pm 26.7 WSW 11 14 1007.9 - 4.8 - - - - - - -
15/07:30pm 26.6 W 12 15 1007.4 - 4.6 - - - - - - -
15/07:00pm 26.7 WNW 14 17 1007.3 - 4.0 - - - - - - -
15/06:30pm 28.0 NNW 17 21 1007.1 - 0.2 - - - - - - -
15/06:00pm 29.6 NNE 12 14 1006.7 - 0.0 - - - - - - -
15/05:30pm 29.9 NNE 12 15 1006.8 - 0.0 - - - - - - -
15/05:00pm 30.2 NE 11 13 1006.6 - 0.0 - - - - - - -
15/04:30pm 30.8 NNE 11 13 1006.5 - 0.0 - - - - - - -
15/04:00pm 32.5 NE 11 13 1006.0 - 0.0 - - - - - - -
15/03:30pm 31.6 NNE 11 13 1006.0 - 0.0 - - - - - - -
15/03:00pm 32.4 NNE 13 15 1006.1 - 0.0 - - - - - - -
15/02:30pm 33.3 NNE 13 16 1006.4 - 0.0 - - - - - - -
15/02:00pm 34.2 NNE 11 13 1006.8 - 0.0 - - - - - - -
15/01:30pm 33.7 NE 12 13 1007.3 - 0.0 - - - - - - -
15/01:00pm 33.0 NE 12 13 1007.5 - 0.0 - - - - - - -
15/12:30pm 33.1 NE 11 13 1007.8 - 0.0 - - - - - - -
15/12:00pm 34.3 NE 9 11 1007.7 - 0.0 - - - - - - -
15/11:30am 32.7 NNE 8 9 1008.0 - 0.0 - - - - - - -
15/11:00am 32.2 SE 2 4 1008.3 - 0.0 - - - - - - -
15/10:30am 31.9 SW 3 4 1008.8 - 0.0 - - - - - - -
15/10:00am 30.5 W 5 7 1008.9 - 0.0 - - - - - - -
15/09:30am 29.9 W 9 10 1009.0 - 0.0 - - - - - - -
15/09:00am 29.5 WNW 10 13 1009.1 - 0.0 Fine Cloudy 35 - - - -
15/08:30am 29.1 WNW 9 10 1009.3 - 0.0 - - - - - - -
15/08:00am 28.4 W 7 9 1009.3 - 0.0 - - - - - - -
15/07:30am 28.1 WSW 8 9 1009.4 - 0.0 - - - - - - -
15/07:00am 28.7 WNW 10 11 1009.2 - 0.0 - - - - - - -
15/06:30am 28.5 NW 11 12 1009.2 - 0.0 - - - - - - -
15/06:00am 28.5 WNW 10 12 1008.6 - 0.0 - - - - - - -
15/05:30am 28.2 NW 10 11 1007.9 - 0.0 - - - - - - -
15/05:00am 28.1 NW 10 12 1007.3 - 0.0 - - - - - - -
15/04:30am 28.1 NW 10 11 1007.0 - 0.0 - - - - - - -
15/04:00am 27.8 WNW 9 11 1007.0 - 0.0 - - - - - - -
15/03:30am 28.5 WNW 9 11 1007.2 - 0.0 - - - - - - -
15/03:00am 28.3 WNW 7 10 1007.3 - 0.0 - - - - - - -
15/02:30am 28.2 NNW 9 11 1007.8 - 0.0 - - - - - - -
15/02:00am 28.1 NNW 12 15 1007.9 - 0.0 - - - - - - -
15/01:30am 28.8 NNE 9 9 1008.0 - 0.0 - - - - - - -
15/01:00am 28.5 NE 9 11 1008.7 - 0.0 - - - - - - -
15/12:30am 29.0 NE 11 13 1009.2 - 0.0 - - - - - - -
15/12:00am 28.8 N 9 11 1009.3 - 0.0 - - - - - - -
 
Date/Time
EST
Temp
°C
Wind Pressure Rain since
9am
mm
Weather Cloud Vis
km
Sea
Height
m
Swell
Dir  Spd
kts
Gust
kts
hPa Trend Height
m
Period
s
Dir
14/11:30pm 29.1 NNW 11 13 1009.6 - 0.0 - - - - - - -
14/11:00pm 29.1 N 9 10 1010.0 - 0.0 - - - - - - -
14/10:30pm 29.0 N 7 9 1010.3 - 0.0 - - - - - - -
14/10:00pm 29.0 N 8 10 1009.9 - 0.0 - - - - - - -
14/09:30pm 28.9 NNE 8 11 1009.4 - 0.0 - - - - - - -
14/09:00pm 28.8 NNE 7 9 1008.9 - 0.0 - - - - - - -

Other Formats:

Comma delimited format used in spreadsheet applications
http://www.bom.gov.au/fwo/IDQ60701/IDQ60701.94285.axf

JavaScript Object Notation format (JSON) in row-major order
http://www.bom.gov.au/fwo/IDQ60701/IDQ60701.94285.json